sensor_id;sensor_type;location;lat;lon;timestamp;temperature;humidity
2062;DHT22;11070;51.336;12.340;2023-02-28T00:00:50;1.20;1.00
2062;DHT22;11070;51.336;12.340;2023-02-28T00:03:16;1.20;1.00
2062;DHT22;11070;51.336;12.340;2023-02-28T00:05:41;1.10;1.00
2062;DHT22;11070;51.336;12.340;2023-02-28T00:08:08;1.10;1.00
2062;DHT22;11070;51.336;12.340;2023-02-28T00:10:34;1.10;1.00
2062;DHT22;11070;51.336;12.340;2023-02-28T00:13:05;1.10;1.00
2062;DHT22;11070;51.336;12.340;2023-02-28T00:15:31;1.20;1.00
2062;DHT22;11070;51.336;12.340;2023-02-28T00:17:57;1.20;1.00
2062;DHT22;11070;51.336;12.340;2023-02-28T00:20:23;1.20;1.00
2062;DHT22;11070;51.336;12.340;2023-02-28T00:22:51;1.20;1.00
2062;DHT22;11070;51.336;12.340;2023-02-28T00:25:19;1.20;1.00
2062;DHT22;11070;51.336;12.340;2023-02-28T00:27:46;1.20;1.00
2062;DHT22;11070;51.336;12.340;2023-02-28T00:30:15;1.20;1.00
2062;DHT22;11070;51.336;12.340;2023-02-28T00:32:41;1.10;1.00
2062;DHT22;11070;51.336;12.340;2023-02-28T00:35:07;1.20;1.00
2062;DHT22;11070;51.336;12.340;2023-02-28T00:37:33;1.10;1.00
2062;DHT22;11070;51.336;12.340;2023-02-28T00:39:59;1.10;1.00
2062;DHT22;11070;51.336;12.340;2023-02-28T00:42:25;1.10;1.00
2062;DHT22;11070;51.336;12.340;2023-02-28T00:44:50;1.10;1.00
2062;DHT22;11070;51.336;12.340;2023-02-28T00:47:16;1.10;1.00
2062;DHT22;11070;51.336;12.340;2023-02-28T00:49:42;1.10;1.00
2062;DHT22;11070;51.336;12.340;2023-02-28T00:52:08;1.10;1.00
2062;DHT22;11070;51.336;12.340;2023-02-28T00:54:33;1.10;1.00
2062;DHT22;11070;51.336;12.340;2023-02-28T00:56:59;1.10;1.00
2062;DHT22;11070;51.336;12.340;2023-02-28T00:59:25;1.10;1.00
2062;DHT22;11070;51.336;12.340;2023-02-28T01:01:51;1.10;1.00
2062;DHT22;11070;51.336;12.340;2023-02-28T01:04:17;1.10;1.00
2062;DHT22;11070;51.336;12.340;2023-02-28T01:06:42;1.10;1.00
2062;DHT22;11070;51.336;12.340;2023-02-28T01:09:09;1.10;1.00
2062;DHT22;11070;51.336;12.340;2023-02-28T01:11:35;1.10;1.00
2062;DHT22;11070;51.336;12.340;2023-02-28T01:14:01;1.10;1.00
2062;DHT22;11070;51.336;12.340;2023-02-28T01:16:27;1.10;1.00
2062;DHT22;11070;51.336;12.340;2023-02-28T01:18:53;1.10;1.00
2062;DHT22;11070;51.336;12.340;2023-02-28T01:21:20;1.10;1.00
2062;DHT22;11070;51.336;12.340;2023-02-28T01:23:47;1.10;1.00
2062;DHT22;11070;51.336;12.340;2023-02-28T01:26:15;1.10;1.00
2062;DHT22;11070;51.336;12.340;2023-02-28T01:28:41;1.10;1.00
2062;DHT22;11070;51.336;12.340;2023-02-28T01:31:08;1.10;1.00
2062;DHT22;11070;51.336;12.340;2023-02-28T01:33:34;1.10;1.00
2062;DHT22;11070;51.336;12.340;2023-02-28T01:36:02;1.00;16.20
2062;DHT22;11070;51.336;12.340;2023-02-28T01:38:29;1.00;18.10
2062;DHT22;11070;51.336;12.340;2023-02-28T01:40:54;1.00;34.80
2062;DHT22;11070;51.336;12.340;2023-02-28T01:43:26;1.00;64.20
2062;DHT22;11070;51.336;12.340;2023-02-28T01:45:54;1.00;99.90
2062;DHT22;11070;51.336;12.340;2023-02-28T01:48:25;0.90;99.90
2062;DHT22;11070;51.336;12.340;2023-02-28T01:50:52;1.00;99.90
2062;DHT22;11070;51.336;12.340;2023-02-28T01:53:24;1.00;99.90
2062;DHT22;11070;51.336;12.340;2023-02-28T01:55:52;1.00;99.90
2062;DHT22;11070;51.336;12.340;2023-02-28T01:58:20;1.00;99.90
2062;DHT22;11070;51.336;12.340;2023-02-28T02:00:46;1.00;99.90
2062;DHT22;11070;51.336;12.340;2023-02-28T02:03:14;1.00;87.10
2062;DHT22;11070;51.336;12.340;2023-02-28T02:05:44;1.00;29.00
2062;DHT22;11070;51.336;12.340;2023-02-28T02:08:17;1.00;70.40
2062;DHT22;11070;51.336;12.340;2023-02-28T02:10:46;0.90;83.80
2062;DHT22;11070;51.336;12.340;2023-02-28T02:13:46;0.90;99.90
2062;DHT22;11070;51.336;12.340;2023-02-28T02:36:37;0.80;99.90
2062;DHT22;11070;51.336;12.340;2023-02-28T02:41:49;0.80;99.90
2062;DHT22;11070;51.336;12.340;2023-02-28T02:44:27;0.80;99.90
2062;DHT22;11070;51.336;12.340;2023-02-28T02:46:59;0.80;99.90
2062;DHT22;11070;51.336;12.340;2023-02-28T02:49:29;0.80;99.90
2062;DHT22;11070;51.336;12.340;2023-02-28T02:52:00;0.80;99.90
2062;DHT22;11070;51.336;12.340;2023-02-28T02:54:30;0.80;99.90
2062;DHT22;11070;51.336;12.340;2023-02-28T02:57:03;0.80;99.90
2062;DHT22;11070;51.336;12.340;2023-02-28T02:59:30;0.70;99.90
2062;DHT22;11070;51.336;12.340;2023-02-28T03:02:02;0.70;99.90
2062;DHT22;11070;51.336;12.340;2023-02-28T03:04:33;0.60;99.90
2062;DHT22;11070;51.336;12.340;2023-02-28T03:07:00;0.50;1.00
2062;DHT22;11070;51.336;12.340;2023-02-28T03:09:26;0.50;1.00
2062;DHT22;11070;51.336;12.340;2023-02-28T03:11:54;0.50;1.00
2062;DHT22;11070;51.336;12.340;2023-02-28T03:23:05;0.50;1.00
2062;DHT22;11070;51.336;12.340;2023-02-28T03:25:59;0.50;1.00
2062;DHT22;11070;51.336;12.340;2023-02-28T03:31:39;0.50;1.00
2062;DHT22;11070;51.336;12.340;2023-02-28T03:34:13;0.50;1.00
2062;DHT22;11070;51.336;12.340;2023-02-28T03:36:42;0.50;1.00
2062;DHT22;11070;51.336;12.340;2023-02-28T03:39:16;0.50;1.00
2062;DHT22;11070;51.336;12.340;2023-02-28T03:47:00;0.50;1.00
2062;DHT22;11070;51.336;12.340;2023-02-28T03:49:37;0.50;1.00
2062;DHT22;11070;51.336;12.340;2023-02-28T03:52:06;0.40;1.00
2062;DHT22;11070;51.336;12.340;2023-02-28T03:54:41;0.40;1.00
2062;DHT22;11070;51.336;12.340;2023-02-28T04:00:28;0.40;1.00
2062;DHT22;11070;51.336;12.340;2023-02-28T04:02:56;0.40;1.00
2062;DHT22;11070;51.336;12.340;2023-02-28T04:05:22;0.30;1.00
2062;DHT22;11070;51.336;12.340;2023-02-28T04:07:48;0.30;99.90
2062;DHT22;11070;51.336;12.340;2023-02-28T04:10:16;0.30;99.90
2062;DHT22;11070;51.336;12.340;2023-02-28T04:12:41;0.30;42.40
2062;DHT22;11070;51.336;12.340;2023-02-28T04:15:07;0.30;99.90
2062;DHT22;11070;51.336;12.340;2023-02-28T04:17:33;0.30;20.60
2062;DHT22;11070;51.336;12.340;2023-02-28T04:19:59;0.30;93.40
2062;DHT22;11070;51.336;12.340;2023-02-28T04:22:25;0.30;99.90
2062;DHT22;11070;51.336;12.340;2023-02-28T04:24:53;0.30;98.60
2062;DHT22;11070;51.336;12.340;2023-02-28T04:27:20;0.30;1.00
2062;DHT22;11070;51.336;12.340;2023-02-28T04:29:46;0.30;1.00
2062;DHT22;11070;51.336;12.340;2023-02-28T04:32:12;0.30;1.00
2062;DHT22;11070;51.336;12.340;2023-02-28T04:34:37;0.40;1.00
2062;DHT22;11070;51.336;12.340;2023-02-28T04:37:03;0.40;1.00
2062;DHT22;11070;51.336;12.340;2023-02-28T04:39:29;0.40;1.00
2062;DHT22;11070;51.336;12.340;2023-02-28T04:41:55;0.40;1.00
2062;DHT22;11070;51.336;12.340;2023-02-28T04:44:21;0.40;1.00
2062;DHT22;11070;51.336;12.340;2023-02-28T04:46:48;0.40;99.90
2062;DHT22;11070;51.336;12.340;2023-02-28T04:49:14;0.40;99.90
2062;DHT22;11070;51.336;12.340;2023-02-28T04:51:41;0.40;99.90
2062;DHT22;11070;51.336;12.340;2023-02-28T04:54:07;0.40;99.90
2062;DHT22;11070;51.336;12.340;2023-02-28T04:56:33;0.40;99.90
2062;DHT22;11070;51.336;12.340;2023-02-28T04:58:58;0.40;99.90
2062;DHT22;11070;51.336;12.340;2023-02-28T05:01:32;0.40;99.90
2062;DHT22;11070;51.336;12.340;2023-02-28T05:04:00;0.30;99.90
2062;DHT22;11070;51.336;12.340;2023-02-28T05:06:28;0.30;99.90
2062;DHT22;11070;51.336;12.340;2023-02-28T05:08:55;0.20;99.90
2062;DHT22;11070;51.336;12.340;2023-02-28T05:11:33;0.20;99.90
2062;DHT22;11070;51.336;12.340;2023-02-28T05:14:09;0.20;99.90
2062;DHT22;11070;51.336;12.340;2023-02-28T05:16:36;0.20;99.90
2062;DHT22;11070;51.336;12.340;2023-02-28T05:19:02;0.20;99.90
2062;DHT22;11070;51.336;12.340;2023-02-28T05:24:03;0.30;99.90
2062;DHT22;11070;51.336;12.340;2023-02-28T05:26:30;0.30;99.90
2062;DHT22;11070;51.336;12.340;2023-02-28T05:28:56;0.20;99.90
2062;DHT22;11070;51.336;12.340;2023-02-28T05:31:22;0.20;99.90
2062;DHT22;11070;51.336;12.340;2023-02-28T05:33:48;0.20;60.00
2062;DHT22;11070;51.336;12.340;2023-02-28T05:36:14;0.20;1.00
2062;DHT22;11070;51.336;12.340;2023-02-28T05:38:40;0.30;1.00
2062;DHT22;11070;51.336;12.340;2023-02-28T05:41:07;0.30;1.00
2062;DHT22;11070;51.336;12.340;2023-02-28T05:43:33;0.30;10.10
2062;DHT22;11070;51.336;12.340;2023-02-28T05:46:01;0.30;11.60
2062;DHT22;11070;51.336;12.340;2023-02-28T05:48:27;0.20;7.80
2062;DHT22;11070;51.336;12.340;2023-02-28T05:50:52;0.20;25.70
2062;DHT22;11070;51.336;12.340;2023-02-28T05:53:18;0.20;1.00
2062;DHT22;11070;51.336;12.340;2023-02-28T05:55:44;0.20;1.00
2062;DHT22;11070;51.336;12.340;2023-02-28T05:58:09;0.20;1.00
2062;DHT22;11070;51.336;12.340;2023-02-28T06:00:35;0.30;6.70
2062;DHT22;11070;51.336;12.340;2023-02-28T06:03:00;0.20;1.00
2062;DHT22;11070;51.336;12.340;2023-02-28T06:05:27;0.20;33.40
2062;DHT22;11070;51.336;12.340;2023-02-28T06:07:53;0.20;90.80
2062;DHT22;11070;51.336;12.340;2023-02-28T06:10:19;0.20;35.00
2062;DHT22;11070;51.336;12.340;2023-02-28T06:12:45;0.20;99.40
2062;DHT22;11070;51.336;12.340;2023-02-28T06:15:14;0.20;61.00
2062;DHT22;11070;51.336;12.340;2023-02-28T06:17:41;0.30;1.00
2062;DHT22;11070;51.336;12.340;2023-02-28T06:20:08;0.70;1.00
2062;DHT22;11070;51.336;12.340;2023-02-28T06:22:35;1.00;1.00
2062;DHT22;11070;51.336;12.340;2023-02-28T06:25:01;1.40;1.00
2062;DHT22;11070;51.336;12.340;2023-02-28T06:27:27;1.70;1.00
2062;DHT22;11070;51.336;12.340;2023-02-28T06:29:55;2.20;1.00
2062;DHT22;11070;51.336;12.340;2023-02-28T06:32:22;2.70;1.00
2062;DHT22;11070;51.336;12.340;2023-02-28T06:34:47;3.30;99.90
2062;DHT22;11070;51.336;12.340;2023-02-28T06:37:13;3.80;99.90
2062;DHT22;11070;51.336;12.340;2023-02-28T06:39:39;4.30;99.90
2062;DHT22;11070;51.336;12.340;2023-02-28T06:42:05;4.50;99.90
2062;DHT22;11070;51.336;12.340;2023-02-28T06:44:31;4.90;99.90
2062;DHT22;11070;51.336;12.340;2023-02-28T06:47:01;5.40;99.90
2062;DHT22;11070;51.336;12.340;2023-02-28T06:49:31;6.00;99.90
2062;DHT22;11070;51.336;12.340;2023-02-28T06:51:57;6.30;99.90
2062;DHT22;11070;51.336;12.340;2023-02-28T06:54:23;6.30;99.90
2062;DHT22;11070;51.336;12.340;2023-02-28T06:56:49;6.40;99.90
2062;DHT22;11070;51.336;12.340;2023-02-28T06:59:14;6.80;99.90
2062;DHT22;11070;51.336;12.340;2023-02-28T07:01:40;7.10;99.90
2062;DHT22;11070;51.336;12.340;2023-02-28T07:04:07;7.20;99.90
2062;DHT22;11070;51.336;12.340;2023-02-28T07:06:33;7.50;99.90
2062;DHT22;11070;51.336;12.340;2023-02-28T07:08:58;7.90;99.90
2062;DHT22;11070;51.336;12.340;2023-02-28T07:11:26;8.10;99.90
2062;DHT22;11070;51.336;12.340;2023-02-28T07:13:53;8.30;99.90
2062;DHT22;11070;51.336;12.340;2023-02-28T07:16:19;8.70;99.90
2062;DHT22;11070;51.336;12.340;2023-02-28T07:18:45;9.20;99.90
2062;DHT22;11070;51.336;12.340;2023-02-28T07:21:11;9.60;99.90
2062;DHT22;11070;51.336;12.340;2023-02-28T07:23:38;9.80;99.90
2062;DHT22;11070;51.336;12.340;2023-02-28T07:26:05;10.00;99.90
2062;DHT22;11070;51.336;12.340;2023-02-28T07:28:31;10.00;99.90
2062;DHT22;11070;51.336;12.340;2023-02-28T07:30:57;9.90;99.90
2062;DHT22;11070;51.336;12.340;2023-02-28T07:33:27;9.60;99.90
2062;DHT22;11070;51.336;12.340;2023-02-28T07:36:00;9.80;99.90
2062;DHT22;11070;51.336;12.340;2023-02-28T07:38:26;10.00;99.90
2062;DHT22;11070;51.336;12.340;2023-02-28T07:40:52;10.30;99.90
2062;DHT22;11070;51.336;12.340;2023-02-28T07:43:17;11.10;99.90
2062;DHT22;11070;51.336;12.340;2023-02-28T07:45:43;11.40;99.90
2062;DHT22;11070;51.336;12.340;2023-02-28T07:48:09;11.80;99.90
2062;DHT22;11070;51.336;12.340;2023-02-28T07:50:35;12.20;99.90
2062;DHT22;11070;51.336;12.340;2023-02-28T07:53:01;12.60;99.90
2062;DHT22;11070;51.336;12.340;2023-02-28T07:55:26;12.90;99.90
2062;DHT22;11070;51.336;12.340;2023-02-28T07:57:52;12.50;99.90
2062;DHT22;11070;51.336;12.340;2023-02-28T08:00:18;12.70;99.90
2062;DHT22;11070;51.336;12.340;2023-02-28T08:02:44;13.10;99.90
2062;DHT22;11070;51.336;12.340;2023-02-28T08:05:09;14.30;99.90
2062;DHT22;11070;51.336;12.340;2023-02-28T08:07:35;14.80;99.90
2062;DHT22;11070;51.336;12.340;2023-02-28T08:10:01;14.80;99.90
2062;DHT22;11070;51.336;12.340;2023-02-28T08:12:27;14.30;99.90
2062;DHT22;11070;51.336;12.340;2023-02-28T08:14:52;13.80;99.90
2062;DHT22;11070;51.336;12.340;2023-02-28T08:17:18;13.80;99.90
2062;DHT22;11070;51.336;12.340;2023-02-28T08:19:47;13.70;99.90
2062;DHT22;11070;51.336;12.340;2023-02-28T08:22:12;13.90;99.90
2062;DHT22;11070;51.336;12.340;2023-02-28T08:24:40;14.50;99.90
2062;DHT22;11070;51.336;12.340;2023-02-28T08:27:07;15.10;99.90
2062;DHT22;11070;51.336;12.340;2023-02-28T08:29:32;15.30;99.90
2062;DHT22;11070;51.336;12.340;2023-02-28T08:31:58;15.60;99.90
2062;DHT22;11070;51.336;12.340;2023-02-28T08:34:24;16.20;99.90
2062;DHT22;11070;51.336;12.340;2023-02-28T08:36:49;16.90;99.90
2062;DHT22;11070;51.336;12.340;2023-02-28T08:39:15;17.60;99.90
2062;DHT22;11070;51.336;12.340;2023-02-28T08:41:42;16.50;99.90
2062;DHT22;11070;51.336;12.340;2023-02-28T08:44:09;16.00;99.90
2062;DHT22;11070;51.336;12.340;2023-02-28T08:46:35;16.40;99.90
2062;DHT22;11070;51.336;12.340;2023-02-28T08:49:00;16.90;99.90
2062;DHT22;11070;51.336;12.340;2023-02-28T08:51:28;16.60;99.90
2062;DHT22;11070;51.336;12.340;2023-02-28T08:53:56;16.70;99.90
2062;DHT22;11070;51.336;12.340;2023-02-28T08:56:23;17.20;99.90
2062;DHT22;11070;51.336;12.340;2023-02-28T08:58:50;17.20;99.90
2062;DHT22;11070;51.336;12.340;2023-02-28T09:01:35;17.10;99.90
2062;DHT22;11070;51.336;12.340;2023-02-28T09:04:02;16.10;99.90
2062;DHT22;11070;51.336;12.340;2023-02-28T09:06:28;15.50;99.90
2062;DHT22;11070;51.336;12.340;2023-02-28T09:08:56;15.50;99.90
2062;DHT22;11070;51.336;12.340;2023-02-28T09:11:24;15.40;99.90
2062;DHT22;11070;51.336;12.340;2023-02-28T09:13:49;15.60;99.90
2062;DHT22;11070;51.336;12.340;2023-02-28T09:16:16;15.30;99.90
2062;DHT22;11070;51.336;12.340;2023-02-28T09:18:42;15.40;99.90
2062;DHT22;11070;51.336;12.340;2023-02-28T09:21:16;15.10;99.90
2062;DHT22;11070;51.336;12.340;2023-02-28T09:23:43;14.50;99.90
2062;DHT22;11070;51.336;12.340;2023-02-28T09:26:17;13.90;99.90
2062;DHT22;11070;51.336;12.340;2023-02-28T09:28:43;13.90;99.90
2062;DHT22;11070;51.336;12.340;2023-02-28T09:31:21;13.90;99.90
2062;DHT22;11070;51.336;12.340;2023-02-28T09:33:52;13.70;99.90
2062;DHT22;11070;51.336;12.340;2023-02-28T09:36:19;13.10;99.90
2062;DHT22;11070;51.336;12.340;2023-02-28T09:38:45;13.10;99.90
2062;DHT22;11070;51.336;12.340;2023-02-28T09:41:21;13.70;99.90
2062;DHT22;11070;51.336;12.340;2023-02-28T09:43:50;14.70;99.90
2062;DHT22;11070;51.336;12.340;2023-02-28T09:46:33;15.40;99.90
2062;DHT22;11070;51.336;12.340;2023-02-28T09:49:04;14.80;99.90
2062;DHT22;11070;51.336;12.340;2023-02-28T09:51:33;14.10;99.90
2062;DHT22;11070;51.336;12.340;2023-02-28T09:54:01;13.00;99.90
2062;DHT22;11070;51.336;12.340;2023-02-28T09:56:32;10.90;99.90
2062;DHT22;11070;51.336;12.340;2023-02-28T10:04:44;9.40;99.90
2062;DHT22;11070;51.336;12.340;2023-02-28T10:07:26;10.10;99.90
2062;DHT22;11070;51.336;12.340;2023-02-28T10:09:58;9.80;99.90
2062;DHT22;11070;51.336;12.340;2023-02-28T10:12:26;9.30;99.90
2062;DHT22;11070;51.336;12.340;2023-02-28T10:14:54;10.00;99.90
2062;DHT22;11070;51.336;12.340;2023-02-28T10:17:23;10.90;99.90
2062;DHT22;11070;51.336;12.340;2023-02-28T10:20:14;12.20;99.90
2062;DHT22;11070;51.336;12.340;2023-02-28T10:22:57;14.10;99.90
2062;DHT22;11070;51.336;12.340;2023-02-28T10:25:27;15.50;99.90
2062;DHT22;11070;51.336;12.340;2023-02-28T10:28:15;15.20;99.90
2062;DHT22;11070;51.336;12.340;2023-02-28T10:30:46;14.90;99.90
2062;DHT22;11070;51.336;12.340;2023-02-28T10:33:32;15.10;99.90
2062;DHT22;11070;51.336;12.340;2023-02-28T10:36:00;15.40;99.90
2062;DHT22;11070;51.336;12.340;2023-02-28T10:38:38;14.90;99.90
2062;DHT22;11070;51.336;12.340;2023-02-28T10:41:08;14.40;99.90
2062;DHT22;11070;51.336;12.340;2023-02-28T10:43:34;14.30;99.90
2062;DHT22;11070;51.336;12.340;2023-02-28T10:49:06;13.70;99.90
2062;DHT22;11070;51.336;12.340;2023-02-28T10:51:39;13.80;99.90
2062;DHT22;11070;51.336;12.340;2023-02-28T10:54:05;14.10;99.90
2062;DHT22;11070;51.336;12.340;2023-02-28T10:56:31;14.90;99.90
2062;DHT22;11070;51.336;12.340;2023-02-28T10:58:59;15.20;99.90
2062;DHT22;11070;51.336;12.340;2023-02-28T11:01:36;15.50;99.90
2062;DHT22;11070;51.336;12.340;2023-02-28T11:04:02;16.20;99.90
2062;DHT22;11070;51.336;12.340;2023-02-28T11:06:29;16.80;99.90
2062;DHT22;11070;51.336;12.340;2023-02-28T11:09:03;16.70;99.90
2062;DHT22;11070;51.336;12.340;2023-02-28T11:11:40;16.60;99.90
2062;DHT22;11070;51.336;12.340;2023-02-28T11:15:04;16.80;99.90
2062;DHT22;11070;51.336;12.340;2023-02-28T11:17:14;16.00;99.90
2062;DHT22;11070;51.336;12.340;2023-02-28T11:19:46;16.70;99.90
2062;DHT22;11070;51.336;12.340;2023-02-28T11:22:21;16.30;99.90
2062;DHT22;11070;51.336;12.340;2023-02-28T11:24:51;15.90;99.90
2062;DHT22;11070;51.336;12.340;2023-02-28T11:29:55;16.30;99.90
2062;DHT22;11070;51.336;12.340;2023-02-28T11:32:26;17.20;99.90
2062;DHT22;11070;51.336;12.340;2023-02-28T11:37:58;16.60;99.90
2062;DHT22;11070;51.336;12.340;2023-02-28T11:40:35;16.20;99.90
2062;DHT22;11070;51.336;12.340;2023-02-28T11:46:01;14.30;99.90
2062;DHT22;11070;51.336;12.340;2023-02-28T11:56:49;17.70;99.90
2062;DHT22;11070;51.336;12.340;2023-02-28T12:02:28;18.60;99.90
2062;DHT22;11070;51.336;12.340;2023-02-28T12:07:47;19.10;99.90
2062;DHT22;11070;51.336;12.340;2023-02-28T12:13:26;18.40;99.90
2062;DHT22;11070;51.336;12.340;2023-02-28T12:16:25;18.30;99.90
2062;DHT22;11070;51.336;12.340;2023-02-28T12:27:21;17.60;99.90
2062;DHT22;11070;51.336;12.340;2023-02-28T12:29:58;18.00;99.90
2062;DHT22;11070;51.336;12.340;2023-02-28T12:32:33;17.20;99.90
2062;DHT22;11070;51.336;12.340;2023-02-28T12:35:13;16.80;99.90
2062;DHT22;11070;51.336;12.340;2023-02-28T12:38:10;17.80;99.90
2062;DHT22;11070;51.336;12.340;2023-02-28T12:41:09;17.80;99.90
2062;DHT22;11070;51.336;12.340;2023-02-28T12:43:40;17.70;99.90
2062;DHT22;11070;51.336;12.340;2023-02-28T12:49:04;17.60;99.90
2062;DHT22;11070;51.336;12.340;2023-02-28T12:51:30;17.70;99.90
2062;DHT22;11070;51.336;12.340;2023-02-28T12:54:11;17.80;99.90
2062;DHT22;11070;51.336;12.340;2023-02-28T12:59:41;17.50;99.90
2062;DHT22;11070;51.336;12.340;2023-02-28T13:05:07;18.90;99.90
2062;DHT22;11070;51.336;12.340;2023-02-28T13:10:22;18.60;99.90
2062;DHT22;11070;51.336;12.340;2023-02-28T13:12:53;18.20;99.90
2062;DHT22;11070;51.336;12.340;2023-02-28T13:15:23;17.40;99.90
2062;DHT22;11070;51.336;12.340;2023-02-28T13:17:55;17.60;99.90
2062;DHT22;11070;51.336;12.340;2023-02-28T13:20:27;17.50;99.90
2062;DHT22;11070;51.336;12.340;2023-02-28T13:22:55;16.70;99.90
2062;DHT22;11070;51.336;12.340;2023-02-28T13:27:48;17.70;99.90
2062;DHT22;11070;51.336;12.340;2023-02-28T13:33:30;18.40;99.90
2062;DHT22;11070;51.336;12.340;2023-02-28T13:38:42;17.20;99.90
2062;DHT22;11070;51.336;12.340;2023-02-28T13:44:08;16.50;99.90
2062;DHT22;11070;51.336;12.340;2023-02-28T13:52:12;15.50;99.90
2062;DHT22;11070;51.336;12.340;2023-02-28T13:55:22;15.30;99.90
2062;DHT22;11070;51.336;12.340;2023-02-28T13:58:03;15.10;99.90
2062;DHT22;11070;51.336;12.340;2023-02-28T14:00:42;15.60;99.90
2062;DHT22;11070;51.336;12.340;2023-02-28T14:08:58;16.30;99.90
2062;DHT22;11070;51.336;12.340;2023-02-28T14:11:33;15.80;99.90
2062;DHT22;11070;51.336;12.340;2023-02-28T14:14:01;15.80;99.90
2062;DHT22;11070;51.336;12.340;2023-02-28T14:16:39;15.60;99.90
2062;DHT22;11070;51.336;12.340;2023-02-28T14:19:22;15.50;99.90
2062;DHT22;11070;51.336;12.340;2023-02-28T14:27:37;15.10;99.90
2062;DHT22;11070;51.336;12.340;2023-02-28T14:33:05;15.30;99.90
2062;DHT22;11070;51.336;12.340;2023-02-28T14:35:48;14.50;99.90
2062;DHT22;11070;51.336;12.340;2023-02-28T14:38:21;14.30;99.90
2062;DHT22;11070;51.336;12.340;2023-02-28T14:40:52;14.20;99.90
2062;DHT22;11070;51.336;12.340;2023-02-28T14:43:25;14.40;99.90
2062;DHT22;11070;51.336;12.340;2023-02-28T14:45:53;14.40;99.90
2062;DHT22;11070;51.336;12.340;2023-02-28T14:48:21;14.60;99.90
2062;DHT22;11070;51.336;12.340;2023-02-28T14:51:00;14.80;99.90
2062;DHT22;11070;51.336;12.340;2023-02-28T14:53:34;14.70;99.90
2062;DHT22;11070;51.336;12.340;2023-02-28T14:56:00;14.80;99.90
2062;DHT22;11070;51.336;12.340;2023-02-28T14:58:32;15.10;99.90
2062;DHT22;11070;51.336;12.340;2023-02-28T15:01:00;14.80;99.90
2062;DHT22;11070;51.336;12.340;2023-02-28T15:05:58;14.50;99.90
2062;DHT22;11070;51.336;12.340;2023-02-28T15:08:25;14.40;99.90
2062;DHT22;11070;51.336;12.340;2023-02-28T15:10:59;13.50;99.90
2062;DHT22;11070;51.336;12.340;2023-02-28T15:16:39;12.60;99.90
2062;DHT22;11070;51.336;12.340;2023-02-28T15:21:42;12.10;99.90
2062;DHT22;11070;51.336;12.340;2023-02-28T15:26:42;11.80;99.90
2062;DHT22;11070;51.336;12.340;2023-02-28T15:29:19;11.80;99.90
2062;DHT22;11070;51.336;12.340;2023-02-28T15:32:06;11.60;99.90
2062;DHT22;11070;51.336;12.340;2023-02-28T15:34:43;11.90;99.90
2062;DHT22;11070;51.336;12.340;2023-02-28T15:37:33;11.40;99.90
2062;DHT22;11070;51.336;12.340;2023-02-28T15:40:10;11.30;99.90
2062;DHT22;11070;51.336;12.340;2023-02-28T15:42:36;11.20;99.90
2062;DHT22;11070;51.336;12.340;2023-02-28T15:45:02;11.30;99.90
2062;DHT22;11070;51.336;12.340;2023-02-28T15:47:30;11.00;99.90
2062;DHT22;11070;51.336;12.340;2023-02-28T15:50:01;10.60;99.90
2062;DHT22;11070;51.336;12.340;2023-02-28T15:52:41;10.30;99.90
2062;DHT22;11070;51.336;12.340;2023-02-28T15:55:19;9.90;99.90
2062;DHT22;11070;51.336;12.340;2023-02-28T15:57:51;9.80;99.90
2062;DHT22;11070;51.336;12.340;2023-02-28T16:00:23;9.70;99.90
2062;DHT22;11070;51.336;12.340;2023-02-28T16:02:50;9.60;99.90
2062;DHT22;11070;51.336;12.340;2023-02-28T16:05:30;9.40;99.90
2062;DHT22;11070;51.336;12.340;2023-02-28T16:08:06;9.20;99.90
2062;DHT22;11070;51.336;12.340;2023-02-28T16:10:36;9.00;99.90
2062;DHT22;11070;51.336;12.340;2023-02-28T16:13:02;8.60;99.90
2062;DHT22;11070;51.336;12.340;2023-02-28T16:15:31;8.00;99.90
2062;DHT22;11070;51.336;12.340;2023-02-28T16:17:58;7.50;99.90
2062;DHT22;11070;51.336;12.340;2023-02-28T16:20:29;7.20;99.90
2062;DHT22;11070;51.336;12.340;2023-02-28T16:22:55;7.00;99.90
2062;DHT22;11070;51.336;12.340;2023-02-28T16:25:38;6.90;99.90
2062;DHT22;11070;51.336;12.340;2023-02-28T16:28:30;6.60;99.90
2062;DHT22;11070;51.336;12.340;2023-02-28T16:30:56;6.10;99.90
2062;DHT22;11070;51.336;12.340;2023-02-28T16:33:22;5.90;99.90
2062;DHT22;11070;51.336;12.340;2023-02-28T16:35:48;5.80;99.90
2062;DHT22;11070;51.336;12.340;2023-02-28T16:38:14;5.50;99.90
2062;DHT22;11070;51.336;12.340;2023-02-28T16:40:40;5.00;99.90
2062;DHT22;11070;51.336;12.340;2023-02-28T16:43:08;5.00;99.90
2062;DHT22;11070;51.336;12.340;2023-02-28T16:45:38;4.80;99.90
2062;DHT22;11070;51.336;12.340;2023-02-28T16:48:04;4.70;99.90
2062;DHT22;11070;51.336;12.340;2023-02-28T16:50:30;4.50;99.90
2062;DHT22;11070;51.336;12.340;2023-02-28T16:52:58;4.40;99.90
2062;DHT22;11070;51.336;12.340;2023-02-28T16:55:25;4.20;99.90
2062;DHT22;11070;51.336;12.340;2023-02-28T16:58:01;4.20;99.90
2062;DHT22;11070;51.336;12.340;2023-02-28T17:00:29;4.20;99.90
2062;DHT22;11070;51.336;12.340;2023-02-28T17:02:55;4.10;99.90
2062;DHT22;11070;51.336;12.340;2023-02-28T17:05:22;4.10;99.90
2062;DHT22;11070;51.336;12.340;2023-02-28T17:07:48;4.00;99.90
2062;DHT22;11070;51.336;12.340;2023-02-28T17:10:23;3.90;99.90
2062;DHT22;11070;51.336;12.340;2023-02-28T17:12:49;3.80;99.90
2062;DHT22;11070;51.336;12.340;2023-02-28T17:15:16;3.80;99.90
2062;DHT22;11070;51.336;12.340;2023-02-28T17:17:43;3.80;99.90
2062;DHT22;11070;51.336;12.340;2023-02-28T17:20:17;3.70;99.90
2062;DHT22;11070;51.336;12.340;2023-02-28T17:22:43;3.60;99.90
2062;DHT22;11070;51.336;12.340;2023-02-28T17:25:10;3.50;99.90
2062;DHT22;11070;51.336;12.340;2023-02-28T17:27:36;3.40;99.90
2062;DHT22;11070;51.336;12.340;2023-02-28T17:30:11;3.40;99.90
2062;DHT22;11070;51.336;12.340;2023-02-28T17:32:38;3.30;99.90
2062;DHT22;11070;51.336;12.340;2023-02-28T17:35:05;3.30;99.90
2062;DHT22;11070;51.336;12.340;2023-02-28T17:37:30;3.20;99.90
2062;DHT22;11070;51.336;12.340;2023-02-28T17:39:56;3.20;99.90
2062;DHT22;11070;51.336;12.340;2023-02-28T17:42:22;3.10;99.90
2062;DHT22;11070;51.336;12.340;2023-02-28T17:44:47;3.00;99.90
2062;DHT22;11070;51.336;12.340;2023-02-28T17:47:13;3.00;99.90
2062;DHT22;11070;51.336;12.340;2023-02-28T17:49:39;3.00;99.90
2062;DHT22;11070;51.336;12.340;2023-02-28T17:52:04;3.00;99.90
2062;DHT22;11070;51.336;12.340;2023-02-28T17:54:30;2.90;99.90
2062;DHT22;11070;51.336;12.340;2023-02-28T17:56:56;3.00;99.90
2062;DHT22;11070;51.336;12.340;2023-02-28T17:59:22;3.00;99.90
2062;DHT22;11070;51.336;12.340;2023-02-28T18:01:48;2.90;99.90
2062;DHT22;11070;51.336;12.340;2023-02-28T18:04:13;2.90;99.90
2062;DHT22;11070;51.336;12.340;2023-02-28T18:06:44;2.80;99.90
2062;DHT22;11070;51.336;12.340;2023-02-28T18:09:14;2.80;99.90
2062;DHT22;11070;51.336;12.340;2023-02-28T18:11:40;2.70;99.90
2062;DHT22;11070;51.336;12.340;2023-02-28T18:14:13;2.60;99.90
2062;DHT22;11070;51.336;12.340;2023-02-28T18:16:40;2.50;99.90
2062;DHT22;11070;51.336;12.340;2023-02-28T18:19:05;2.40;99.90